createdAt,value
2023-04-16T00:02:35.749Z,9.57
2023-04-16T00:07:37.571Z,9.64
2023-04-16T00:12:41.158Z,9.67
2023-04-16T00:17:43.419Z,9.57
2023-04-16T00:22:45.540Z,9.58
2023-04-16T00:27:48.599Z,9.63
2023-04-16T00:32:50.996Z,9.56
2023-04-16T00:37:53.099Z,9.41
2023-04-16T00:42:56.458Z,9.41
2023-04-16T00:48:00.552Z,9.39
2023-04-16T00:53:02.848Z,9.41
2023-04-16T00:58:06.464Z,9.42
2023-04-16T01:03:09.561Z,9.46
2023-04-16T01:08:16.979Z,9.38
2023-04-16T01:13:21.304Z,9.42
2023-04-16T01:18:24.287Z,9.39
2023-04-16T01:23:27.338Z,9.38
2023-04-16T01:28:29.690Z,9.38
2023-04-16T01:33:34.530Z,9.36
2023-04-16T01:38:37.824Z,9.32
2023-04-16T01:43:40.331Z,9.31
2023-04-16T01:48:42.720Z,9.25
2023-04-16T01:53:46.159Z,9.26
2023-04-16T01:58:48.318Z,9.33
2023-04-16T02:03:51.791Z,9.26
2023-04-16T02:08:55.132Z,9.23
2023-04-16T02:13:57.328Z,9.21
2023-04-16T02:18:59.436Z,9.24
2023-04-16T02:24:02.866Z,9.19
2023-04-16T02:29:04.872Z,9.17
2023-04-16T02:34:07.176Z,9.16
2023-04-16T02:39:11.432Z,9.14
2023-04-16T02:44:16.744Z,9.08
2023-04-16T02:49:18.449Z,9.01
2023-04-16T02:54:21.879Z,9.02
2023-04-16T02:59:24.058Z,8.92
2023-04-16T03:04:26.686Z,8.91
2023-04-16T03:09:30.357Z,8.96
2023-04-16T03:14:32.628Z,8.88
2023-04-16T03:19:34.947Z,8.81
2023-04-16T03:24:38.424Z,8.74
2023-04-16T03:29:40.563Z,8.72
2023-04-16T03:34:42.533Z,8.70
2023-04-16T03:39:46.016Z,8.61
2023-04-16T03:44:47.914Z,8.54
2023-04-16T03:49:50.063Z,8.50
2023-04-16T03:54:53.170Z,8.49
2023-04-16T03:59:55.266Z,8.40
2023-04-16T04:04:57.722Z,8.40
2023-04-16T04:10:01.529Z,8.37
2023-04-16T04:15:03.624Z,8.35
2023-04-16T04:20:06.608Z,8.33
2023-04-16T04:25:10.765Z,8.35
2023-04-16T04:30:12.916Z,8.36
2023-04-16T04:35:17.520Z,8.35
2023-04-16T04:40:21.088Z,8.40
2023-04-16T04:45:23.612Z,8.40
2023-04-16T04:50:25.791Z,8.47
2023-04-16T04:55:29.262Z,8.41
2023-04-16T05:00:31.763Z,8.36
2023-04-16T05:05:33.863Z,8.34
2023-04-16T05:10:37.545Z,8.34
2023-04-16T05:15:39.595Z,8.27
2023-04-16T05:20:41.724Z,8.31
2023-04-16T05:25:45.027Z,8.30
2023-04-16T05:30:47.078Z,8.35
2023-04-16T05:35:49.540Z,8.33
2023-04-16T05:40:53.284Z,8.42
2023-04-16T05:45:55.149Z,8.40
2023-04-16T05:50:57.289Z,8.38
2023-04-16T05:56:00.386Z,8.41
2023-04-16T06:01:02.568Z,8.41
2023-04-16T06:06:05.001Z,8.42
2023-04-16T06:11:08.509Z,8.46
2023-04-16T06:16:10.681Z,8.51
2023-04-16T06:21:13.013Z,8.65
2023-04-16T06:26:16.586Z,8.63
2023-04-16T06:31:18.550Z,8.57
2023-04-16T06:36:21.117Z,8.68
2023-04-16T06:41:24.596Z,8.73
2023-04-16T06:46:26.855Z,8.69
2023-04-16T06:51:28.642Z,8.83
2023-04-16T06:56:32.243Z,8.99
2023-04-16T07:01:36.191Z,8.88
2023-04-16T07:06:38.282Z,8.95
2023-04-16T07:11:42.302Z,8.85
2023-04-16T07:16:44.437Z,8.90
2023-04-16T07:21:46.800Z,8.91
2023-04-16T07:26:50.229Z,9.13
2023-04-16T07:31:52.585Z,8.94
2023-04-16T07:36:55.052Z,9.07
2023-04-16T07:41:58.582Z,9.10
2023-04-16T07:47:01.327Z,9.26
2023-04-16T07:52:04.722Z,8.98
2023-04-16T07:57:07.932Z,9.14
2023-04-16T08:02:13.044Z,9.27
2023-04-16T08:07:14.838Z,9.21
2023-04-16T08:12:18.431Z,9.37
2023-04-16T08:17:20.470Z,9.22
2023-04-16T08:22:22.290Z,9.58
2023-04-16T08:27:28.455Z,9.65
2023-04-16T08:32:30.293Z,9.60
2023-04-16T08:37:32.290Z,9.60
2023-04-16T08:42:43.952Z,9.66
2023-04-16T08:47:47.050Z,9.61
2023-04-16T08:52:51.740Z,9.67
2023-04-16T08:57:59.510Z,9.73
2023-04-16T09:03:02.949Z,9.63
2023-04-16T09:08:05.677Z,9.61
2023-04-16T09:13:10.405Z,9.46
2023-04-16T09:18:12.474Z,9.38
2023-04-16T09:23:14.205Z,9.56
2023-04-16T09:28:41.861Z,9.50
2023-04-16T09:34:00.670Z,9.67
2023-04-16T09:39:03.893Z,9.69
2023-04-16T09:44:07.169Z,9.54
2023-04-16T09:49:10.075Z,9.61
2023-04-16T09:54:12.526Z,9.72
2023-04-16T09:59:19.063Z,9.89
2023-04-16T10:04:20.863Z,9.88
2023-04-16T10:09:22.800Z,9.96
2023-04-16T10:14:25.930Z,10.08
2023-04-16T10:19:28.500Z,10.18
2023-04-16T10:24:32.291Z,9.95
2023-04-16T10:29:36.942Z,10.27
2023-04-16T10:34:40.153Z,10.34
2023-04-16T10:39:42.167Z,10.08
2023-04-16T10:44:46.159Z,9.97
2023-04-16T10:49:48.018Z,9.96
2023-04-16T10:54:52.500Z,9.78
2023-04-16T10:59:56.133Z,9.99
2023-04-16T11:04:58.013Z,10.14
2023-04-16T11:10:00.918Z,10.08
2023-04-16T11:15:06.214Z,10.29
2023-04-16T11:20:18.900Z,10.34
2023-04-16T11:25:24.159Z,10.43
2023-04-16T11:30:32.022Z,10.19
2023-04-16T11:35:33.915Z,10.44
2023-04-16T11:40:36.144Z,10.23
2023-04-16T11:45:39.555Z,10.42
2023-04-16T11:50:41.564Z,10.60
2023-04-16T11:55:44.530Z,10.78
2023-04-16T12:00:48.472Z,10.56
2023-04-16T12:05:50.647Z,10.69
2023-04-16T12:10:54.755Z,10.68
2023-04-16T12:15:58.030Z,10.76
2023-04-16T12:21:05.085Z,10.97
2023-04-16T12:26:08.051Z,10.89
2023-04-16T12:31:14.182Z,10.98
2023-04-16T12:36:20.004Z,10.87
2023-04-16T12:41:22.428Z,10.94
2023-04-16T12:46:26.005Z,10.81
2023-04-16T12:51:28.016Z,10.50
2023-04-16T12:56:30.826Z,10.45
2023-04-16T13:01:33.950Z,10.40
2023-04-16T13:06:36.095Z,10.38
2023-04-16T13:11:37.830Z,10.41
2023-04-16T13:16:40.955Z,10.53
2023-04-16T13:21:42.684Z,10.54
2023-04-16T13:26:45.021Z,10.55
2023-04-16T13:31:49.131Z,10.41
2023-04-16T13:36:51.275Z,10.16
2023-04-16T13:41:53.316Z,10.09
2023-04-16T13:46:56.927Z,10.11
2023-04-16T13:51:58.975Z,10.22
2023-04-16T13:57:01.177Z,10.27
2023-04-16T14:02:04.500Z,10.46
2023-04-16T14:07:06.488Z,10.44
2023-04-16T14:12:08.678Z,10.64
2023-04-16T14:17:12.288Z,10.88
2023-04-16T14:22:14.273Z,11.14
2023-04-16T14:27:16.245Z,11.20
2023-04-16T14:32:20.332Z,11.18
2023-04-16T14:37:22.242Z,11.23
2023-04-16T14:42:24.298Z,11.25
2023-04-16T14:47:27.531Z,11.31
2023-04-16T14:52:30.837Z,10.94
2023-04-16T14:57:33.368Z,11.27
2023-04-16T15:02:36.814Z,11.00
2023-04-16T15:07:38.912Z,10.88
2023-04-16T15:12:40.969Z,10.89
2023-04-16T15:17:44.661Z,10.96
2023-04-16T15:22:46.732Z,11.04
2023-04-16T15:27:48.459Z,11.11
2023-04-16T15:32:51.719Z,11.37
2023-04-16T15:37:53.437Z,11.35
2023-04-16T15:42:55.921Z,11.45
2023-04-16T15:47:59.767Z,11.33
2023-04-16T15:53:01.571Z,11.38
2023-04-16T15:58:06.395Z,11.38
2023-04-16T16:03:09.922Z,11.27
2023-04-16T16:08:12.681Z,11.14
2023-04-16T16:13:14.797Z,11.22
2023-04-16T16:18:18.298Z,11.07
2023-04-16T16:23:20.027Z,10.97
2023-04-16T16:28:22.188Z,10.85
2023-04-16T16:33:25.741Z,10.83
2023-04-16T16:38:27.771Z,10.72
2023-04-16T16:43:29.913Z,10.65
2023-04-16T16:48:33.554Z,10.67
2023-04-16T16:53:36.074Z,10.55
2023-04-16T16:58:38.620Z,10.56
2023-04-16T17:03:42.057Z,10.71
2023-04-16T17:08:43.880Z,10.38
2023-04-16T17:13:46.233Z,10.23
2023-04-16T17:18:51.816Z,9.96
2023-04-16T17:23:53.564Z,9.78
2023-04-16T17:28:56.135Z,9.66
2023-04-16T17:33:59.256Z,9.68
2023-04-16T17:39:01.272Z,9.72
2023-04-16T17:44:03.798Z,9.75
2023-04-16T17:49:08.338Z,9.61
2023-04-16T17:54:10.694Z,9.56
2023-04-16T17:59:12.690Z,9.46
2023-04-16T18:04:17.433Z,9.32
2023-04-16T18:09:20.020Z,9.27
2023-04-16T18:14:22.030Z,9.23
2023-04-16T18:19:25.959Z,9.23
2023-04-16T18:24:28.008Z,9.25
2023-04-16T18:29:30.329Z,9.14
2023-04-16T18:34:36.687Z,9.20
2023-04-16T18:39:38.899Z,9.07
2023-04-16T18:44:41.788Z,9.02
2023-04-16T18:49:45.082Z,9.12
2023-04-16T18:54:47.138Z,9.04
2023-04-16T18:59:49.347Z,9.10
2023-04-16T19:04:53.027Z,9.00
2023-04-16T19:09:54.828Z,9.03
2023-04-16T19:14:57.272Z,8.91
2023-04-16T19:20:01.034Z,9.03
2023-04-16T19:25:03.142Z,8.89
2023-04-16T19:30:06.680Z,8.87
2023-04-16T19:35:11.823Z,8.82
2023-04-16T19:40:14.008Z,8.74
2023-04-16T19:45:16.711Z,8.72
2023-04-16T19:50:19.997Z,8.70
2023-04-16T19:55:21.783Z,8.78
2023-04-16T20:00:23.876Z,8.67
2023-04-16T20:05:27.146Z,8.61
2023-04-16T20:10:28.878Z,8.52
2023-04-16T20:15:30.596Z,8.50
2023-04-16T20:20:35.765Z,8.46
2023-04-16T20:25:40.893Z,8.45
2023-04-16T20:30:42.774Z,8.41
2023-04-16T20:35:47.420Z,8.32
2023-04-16T20:40:49.689Z,8.33
2023-04-16T20:45:52.225Z,8.31
2023-04-16T20:50:59.382Z,8.32
2023-04-16T20:56:01.104Z,8.32
2023-04-16T21:01:02.990Z,8.23
2023-04-16T21:06:06.311Z,8.19
2023-04-16T21:11:08.486Z,8.17
2023-04-16T21:16:10.781Z,8.10
2023-04-16T21:21:13.874Z,8.07
2023-04-16T21:26:16.141Z,8.00
2023-04-16T21:31:17.917Z,7.98
2023-04-16T21:36:21.043Z,7.90
2023-04-16T21:41:23.285Z,7.85
2023-04-16T21:46:25.269Z,7.72
2023-04-16T21:51:28.503Z,7.69
2023-04-16T21:56:30.648Z,7.67
2023-04-16T22:01:32.905Z,7.61
2023-04-16T22:06:36.054Z,7.56
2023-04-16T22:11:37.988Z,7.52
2023-04-16T22:16:40.272Z,7.50
2023-04-16T22:21:43.430Z,7.49
2023-04-16T22:26:45.416Z,7.47
2023-04-16T22:31:47.189Z,7.44
2023-04-16T22:36:50.628Z,7.40
2023-04-16T22:41:52.360Z,7.40
2023-04-16T22:46:54.729Z,7.37
2023-04-16T22:51:57.857Z,7.38
2023-04-16T22:57:00.095Z,7.38
2023-04-16T23:02:02.075Z,7.38
2023-04-16T23:07:05.664Z,7.36
2023-04-16T23:12:08.117Z,7.36
2023-04-16T23:17:09.829Z,7.39
2023-04-16T23:22:12.933Z,7.37
2023-04-16T23:27:14.642Z,7.42
2023-04-16T23:32:16.390Z,7.39
2023-04-16T23:37:19.735Z,7.32
2023-04-16T23:42:21.559Z,7.31
2023-04-16T23:47:23.814Z,7.30
2023-04-16T23:52:27.386Z,7.33
2023-04-16T23:57:29.312Z,7.27
